sensor_id;sensor_type;location;lat;lon;timestamp;temperature;humidity
33994;DHT22;20673;48.980;8.138;2023-03-20T00:02:01;9.50;99.90
33994;DHT22;20673;48.980;8.138;2023-03-20T00:04:27;9.50;99.90
33994;DHT22;20673;48.980;8.138;2023-03-20T00:06:54;9.50;99.90
33994;DHT22;20673;48.980;8.138;2023-03-20T00:09:19;9.50;99.90
33994;DHT22;20673;48.980;8.138;2023-03-20T00:11:46;9.50;99.90
33994;DHT22;20673;48.980;8.138;2023-03-20T00:14:13;9.50;99.90
33994;DHT22;20673;48.980;8.138;2023-03-20T00:16:41;9.50;99.90
33994;DHT22;20673;48.980;8.138;2023-03-20T00:19:12;9.50;99.90
33994;DHT22;20673;48.980;8.138;2023-03-20T00:21:34;9.40;99.90
33994;DHT22;20673;48.980;8.138;2023-03-20T00:24:00;9.40;99.90
33994;DHT22;20673;48.980;8.138;2023-03-20T00:26:27;9.40;99.90
33994;DHT22;20673;48.980;8.138;2023-03-20T00:28:54;9.40;99.90
33994;DHT22;20673;48.980;8.138;2023-03-20T00:31:23;9.50;99.90
33994;DHT22;20673;48.980;8.138;2023-03-20T00:33:49;9.40;99.90
33994;DHT22;20673;48.980;8.138;2023-03-20T00:36:14;9.40;99.90
33994;DHT22;20673;48.980;8.138;2023-03-20T00:38:40;9.30;99.90
33994;DHT22;20673;48.980;8.138;2023-03-20T00:43:50;9.40;99.90
33994;DHT22;20673;48.980;8.138;2023-03-20T00:46:17;9.50;99.90
33994;DHT22;20673;48.980;8.138;2023-03-20T00:48:43;9.50;99.90
33994;DHT22;20673;48.980;8.138;2023-03-20T00:51:09;9.60;99.90
33994;DHT22;20673;48.980;8.138;2023-03-20T00:53:35;9.60;99.90
33994;DHT22;20673;48.980;8.138;2023-03-20T00:56:01;9.60;99.90
33994;DHT22;20673;48.980;8.138;2023-03-20T00:58:27;9.60;99.90
33994;DHT22;20673;48.980;8.138;2023-03-20T01:00:53;9.50;99.90
33994;DHT22;20673;48.980;8.138;2023-03-20T01:03:19;9.50;99.90
33994;DHT22;20673;48.980;8.138;2023-03-20T01:05:46;9.40;99.90
33994;DHT22;20673;48.980;8.138;2023-03-20T01:08:13;9.40;99.90
33994;DHT22;20673;48.980;8.138;2023-03-20T01:10:39;9.40;99.90
33994;DHT22;20673;48.980;8.138;2023-03-20T01:13:08;9.30;99.90
33994;DHT22;20673;48.980;8.138;2023-03-20T01:15:33;9.30;99.90
33994;DHT22;20673;48.980;8.138;2023-03-20T01:18:00;9.40;99.90
33994;DHT22;20673;48.980;8.138;2023-03-20T01:20:27;9.40;99.90
33994;DHT22;20673;48.980;8.138;2023-03-20T01:22:53;9.30;99.90
33994;DHT22;20673;48.980;8.138;2023-03-20T01:25:19;9.40;99.90
33994;DHT22;20673;48.980;8.138;2023-03-20T01:27:47;9.30;99.90
33994;DHT22;20673;48.980;8.138;2023-03-20T01:30:18;9.30;99.90
33994;DHT22;20673;48.980;8.138;2023-03-20T01:32:44;9.30;99.90
33994;DHT22;20673;48.980;8.138;2023-03-20T01:35:12;9.20;99.90
33994;DHT22;20673;48.980;8.138;2023-03-20T01:37:38;9.20;99.90
33994;DHT22;20673;48.980;8.138;2023-03-20T01:40:08;9.10;99.90
33994;DHT22;20673;48.980;8.138;2023-03-20T01:42:32;9.00;99.90
33994;DHT22;20673;48.980;8.138;2023-03-20T01:44:58;9.00;99.90
33994;DHT22;20673;48.980;8.138;2023-03-20T01:47:23;8.90;99.90
33994;DHT22;20673;48.980;8.138;2023-03-20T01:52:34;9.00;99.90
33994;DHT22;20673;48.980;8.138;2023-03-20T01:55:00;8.90;99.90
33994;DHT22;20673;48.980;8.138;2023-03-20T01:57:28;8.90;99.90
33994;DHT22;20673;48.980;8.138;2023-03-20T02:00:04;8.80;99.90
33994;DHT22;20673;48.980;8.138;2023-03-20T02:02:30;8.90;99.90
33994;DHT22;20673;48.980;8.138;2023-03-20T02:04:57;8.80;99.90
33994;DHT22;20673;48.980;8.138;2023-03-20T02:07:24;8.90;99.90
33994;DHT22;20673;48.980;8.138;2023-03-20T02:09:50;8.90;99.90
33994;DHT22;20673;48.980;8.138;2023-03-20T02:12:16;8.90;99.90
33994;DHT22;20673;48.980;8.138;2023-03-20T02:14:43;8.90;99.90
33994;DHT22;20673;48.980;8.138;2023-03-20T02:17:10;8.80;99.90
33994;DHT22;20673;48.980;8.138;2023-03-20T02:19:57;8.70;99.90
33994;DHT22;20673;48.980;8.138;2023-03-20T02:24:53;8.70;99.90
33994;DHT22;20673;48.980;8.138;2023-03-20T02:27:33;8.70;99.90
33994;DHT22;20673;48.980;8.138;2023-03-20T02:43:22;8.30;99.90
33994;DHT22;20673;48.980;8.138;2023-03-20T02:53:30;8.30;99.90
33994;DHT22;20673;48.980;8.138;2023-03-20T02:55:56;8.30;99.90
33994;DHT22;20673;48.980;8.138;2023-03-20T02:58:29;8.30;99.90
33994;DHT22;20673;48.980;8.138;2023-03-20T03:03:33;8.40;99.90
33994;DHT22;20673;48.980;8.138;2023-03-20T03:06:16;8.50;99.90
33994;DHT22;20673;48.980;8.138;2023-03-20T03:08:40;8.50;99.90
33994;DHT22;20673;48.980;8.138;2023-03-20T03:11:07;8.60;99.90
33994;DHT22;20673;48.980;8.138;2023-03-20T03:13:37;8.60;99.90
33994;DHT22;20673;48.980;8.138;2023-03-20T03:16:11;8.70;99.90
33994;DHT22;20673;48.980;8.138;2023-03-20T03:18:37;8.60;99.90
33994;DHT22;20673;48.980;8.138;2023-03-20T03:21:05;8.60;99.90
33994;DHT22;20673;48.980;8.138;2023-03-20T03:23:39;8.60;99.90
33994;DHT22;20673;48.980;8.138;2023-03-20T03:26:03;8.60;99.90
33994;DHT22;20673;48.980;8.138;2023-03-20T03:31:03;8.60;99.90
33994;DHT22;20673;48.980;8.138;2023-03-20T03:33:29;8.60;99.90
33994;DHT22;20673;48.980;8.138;2023-03-20T03:35:59;8.50;99.90
33994;DHT22;20673;48.980;8.138;2023-03-20T03:38:28;8.50;99.90
33994;DHT22;20673;48.980;8.138;2023-03-20T03:43:41;8.70;99.90
33994;DHT22;20673;48.980;8.138;2023-03-20T03:46:12;8.70;99.90
33994;DHT22;20673;48.980;8.138;2023-03-20T03:48:48;8.60;99.90
33994;DHT22;20673;48.980;8.138;2023-03-20T03:51:10;8.60;99.90
33994;DHT22;20673;48.980;8.138;2023-03-20T03:53:40;8.60;99.90
33994;DHT22;20673;48.980;8.138;2023-03-20T03:56:07;8.50;99.90
33994;DHT22;20673;48.980;8.138;2023-03-20T03:58:44;8.50;99.90
33994;DHT22;20673;48.980;8.138;2023-03-20T04:01:11;8.50;99.90
33994;DHT22;20673;48.980;8.138;2023-03-20T04:03:38;8.50;99.90
33994;DHT22;20673;48.980;8.138;2023-03-20T04:06:04;8.50;99.90
33994;DHT22;20673;48.980;8.138;2023-03-20T04:08:32;8.50;99.90
33994;DHT22;20673;48.980;8.138;2023-03-20T04:10:58;8.50;99.90
33994;DHT22;20673;48.980;8.138;2023-03-20T04:13:24;8.50;99.90
33994;DHT22;20673;48.980;8.138;2023-03-20T04:15:49;8.70;99.90
33994;DHT22;20673;48.980;8.138;2023-03-20T04:18:16;8.80;99.90
33994;DHT22;20673;48.980;8.138;2023-03-20T04:20:42;8.90;99.90
33994;DHT22;20673;48.980;8.138;2023-03-20T04:23:09;8.90;99.90
33994;DHT22;20673;48.980;8.138;2023-03-20T04:25:37;8.90;99.90
33994;DHT22;20673;48.980;8.138;2023-03-20T04:28:03;8.90;99.90
33994;DHT22;20673;48.980;8.138;2023-03-20T04:30:29;9.00;99.90
33994;DHT22;20673;48.980;8.138;2023-03-20T04:32:55;9.00;99.90
33994;DHT22;20673;48.980;8.138;2023-03-20T04:35:21;9.10;99.90
33994;DHT22;20673;48.980;8.138;2023-03-20T04:37:46;9.20;99.90
33994;DHT22;20673;48.980;8.138;2023-03-20T04:40:12;9.10;99.90
33994;DHT22;20673;48.980;8.138;2023-03-20T04:42:38;9.20;99.90
33994;DHT22;20673;48.980;8.138;2023-03-20T04:45:04;9.20;99.90
33994;DHT22;20673;48.980;8.138;2023-03-20T04:47:29;9.20;99.90
33994;DHT22;20673;48.980;8.138;2023-03-20T04:49:55;9.20;99.90
33994;DHT22;20673;48.980;8.138;2023-03-20T04:52:21;9.20;99.90
33994;DHT22;20673;48.980;8.138;2023-03-20T04:54:47;9.20;99.90
33994;DHT22;20673;48.980;8.138;2023-03-20T04:57:12;9.20;99.90
33994;DHT22;20673;48.980;8.138;2023-03-20T04:59:38;9.10;99.90
33994;DHT22;20673;48.980;8.138;2023-03-20T05:02:03;9.10;99.90
33994;DHT22;20673;48.980;8.138;2023-03-20T05:04:29;9.10;99.90
33994;DHT22;20673;48.980;8.138;2023-03-20T05:06:55;9.10;99.90
33994;DHT22;20673;48.980;8.138;2023-03-20T05:09:21;9.00;99.90
33994;DHT22;20673;48.980;8.138;2023-03-20T05:11:46;9.10;99.90
33994;DHT22;20673;48.980;8.138;2023-03-20T05:14:12;9.10;99.90
33994;DHT22;20673;48.980;8.138;2023-03-20T05:16:38;9.10;99.90
33994;DHT22;20673;48.980;8.138;2023-03-20T05:19:04;9.10;99.90
33994;DHT22;20673;48.980;8.138;2023-03-20T05:21:30;9.10;99.90
33994;DHT22;20673;48.980;8.138;2023-03-20T05:23:55;9.10;99.90
33994;DHT22;20673;48.980;8.138;2023-03-20T05:26:21;9.20;99.90
33994;DHT22;20673;48.980;8.138;2023-03-20T05:28:47;9.20;99.90
33994;DHT22;20673;48.980;8.138;2023-03-20T05:31:12;9.20;99.90
33994;DHT22;20673;48.980;8.138;2023-03-20T05:33:38;9.20;99.90
33994;DHT22;20673;48.980;8.138;2023-03-20T05:36:04;9.20;99.90
33994;DHT22;20673;48.980;8.138;2023-03-20T05:38:30;9.10;99.90
33994;DHT22;20673;48.980;8.138;2023-03-20T05:40:56;9.10;99.90
33994;DHT22;20673;48.980;8.138;2023-03-20T05:43:22;9.20;99.90
33994;DHT22;20673;48.980;8.138;2023-03-20T05:45:48;9.20;99.90
33994;DHT22;20673;48.980;8.138;2023-03-20T05:48:14;9.20;99.90
33994;DHT22;20673;48.980;8.138;2023-03-20T05:50:40;9.20;99.90
33994;DHT22;20673;48.980;8.138;2023-03-20T05:53:05;9.20;99.90
33994;DHT22;20673;48.980;8.138;2023-03-20T05:55:31;9.20;99.90
33994;DHT22;20673;48.980;8.138;2023-03-20T05:57:57;9.20;99.90
33994;DHT22;20673;48.980;8.138;2023-03-20T06:00:23;9.20;99.90
33994;DHT22;20673;48.980;8.138;2023-03-20T06:02:49;9.30;99.90
33994;DHT22;20673;48.980;8.138;2023-03-20T06:05:14;9.30;99.90
33994;DHT22;20673;48.980;8.138;2023-03-20T06:07:40;9.30;99.90
33994;DHT22;20673;48.980;8.138;2023-03-20T06:10:06;9.30;99.90
33994;DHT22;20673;48.980;8.138;2023-03-20T06:12:32;9.30;99.90
33994;DHT22;20673;48.980;8.138;2023-03-20T06:14:58;9.40;99.90
33994;DHT22;20673;48.980;8.138;2023-03-20T06:17:24;9.40;99.90
33994;DHT22;20673;48.980;8.138;2023-03-20T06:19:49;9.50;99.90
33994;DHT22;20673;48.980;8.138;2023-03-20T06:22:15;9.50;99.90
33994;DHT22;20673;48.980;8.138;2023-03-20T06:24:41;9.40;99.90
33994;DHT22;20673;48.980;8.138;2023-03-20T06:27:07;9.40;99.90
33994;DHT22;20673;48.980;8.138;2023-03-20T06:29:33;9.40;99.90
33994;DHT22;20673;48.980;8.138;2023-03-20T06:31:59;9.40;99.90
33994;DHT22;20673;48.980;8.138;2023-03-20T06:34:25;9.40;99.90
33994;DHT22;20673;48.980;8.138;2023-03-20T06:36:50;9.40;99.90
33994;DHT22;20673;48.980;8.138;2023-03-20T06:39:16;9.40;99.90
33994;DHT22;20673;48.980;8.138;2023-03-20T06:41:42;9.40;99.90
33994;DHT22;20673;48.980;8.138;2023-03-20T06:44:07;9.40;99.90
33994;DHT22;20673;48.980;8.138;2023-03-20T06:46:33;9.40;99.90
33994;DHT22;20673;48.980;8.138;2023-03-20T06:48:59;9.40;99.90
33994;DHT22;20673;48.980;8.138;2023-03-20T06:51:25;9.40;99.90
33994;DHT22;20673;48.980;8.138;2023-03-20T06:53:51;9.50;99.90
33994;DHT22;20673;48.980;8.138;2023-03-20T06:56:17;9.40;99.90
33994;DHT22;20673;48.980;8.138;2023-03-20T06:58:42;9.40;99.90
33994;DHT22;20673;48.980;8.138;2023-03-20T07:01:12;9.50;99.90
33994;DHT22;20673;48.980;8.138;2023-03-20T07:03:35;9.50;99.90
33994;DHT22;20673;48.980;8.138;2023-03-20T07:06:01;9.50;99.90
33994;DHT22;20673;48.980;8.138;2023-03-20T07:08:27;9.50;99.90
33994;DHT22;20673;48.980;8.138;2023-03-20T07:10:53;9.50;99.90
33994;DHT22;20673;48.980;8.138;2023-03-20T07:13:19;9.50;99.90
33994;DHT22;20673;48.980;8.138;2023-03-20T07:15:45;9.50;99.90
33994;DHT22;20673;48.980;8.138;2023-03-20T07:18:10;9.50;99.90
33994;DHT22;20673;48.980;8.138;2023-03-20T07:20:36;9.50;99.90
33994;DHT22;20673;48.980;8.138;2023-03-20T07:23:02;9.50;99.90
33994;DHT22;20673;48.980;8.138;2023-03-20T07:25:27;9.50;99.90
33994;DHT22;20673;48.980;8.138;2023-03-20T07:27:53;9.50;99.90
33994;DHT22;20673;48.980;8.138;2023-03-20T07:30:19;9.50;99.90
33994;DHT22;20673;48.980;8.138;2023-03-20T07:32:48;9.50;99.90
33994;DHT22;20673;48.980;8.138;2023-03-20T07:35:14;9.50;99.90
33994;DHT22;20673;48.980;8.138;2023-03-20T07:37:40;9.70;99.90
33994;DHT22;20673;48.980;8.138;2023-03-20T07:40:06;9.70;99.90
33994;DHT22;20673;48.980;8.138;2023-03-20T07:42:32;9.80;99.90
33994;DHT22;20673;48.980;8.138;2023-03-20T07:44:58;9.80;99.90
33994;DHT22;20673;48.980;8.138;2023-03-20T07:47:23;9.90;99.90
33994;DHT22;20673;48.980;8.138;2023-03-20T07:49:49;10.00;99.90
33994;DHT22;20673;48.980;8.138;2023-03-20T07:52:15;10.10;99.90
33994;DHT22;20673;48.980;8.138;2023-03-20T07:54:41;10.10;99.90
33994;DHT22;20673;48.980;8.138;2023-03-20T07:57:07;10.10;99.90
33994;DHT22;20673;48.980;8.138;2023-03-20T07:59:33;10.10;99.90
33994;DHT22;20673;48.980;8.138;2023-03-20T08:01:58;10.10;99.90
33994;DHT22;20673;48.980;8.138;2023-03-20T08:04:24;10.10;99.90
33994;DHT22;20673;48.980;8.138;2023-03-20T08:06:50;10.20;99.90
33994;DHT22;20673;48.980;8.138;2023-03-20T08:09:16;10.30;99.90
33994;DHT22;20673;48.980;8.138;2023-03-20T08:11:42;10.40;99.90
33994;DHT22;20673;48.980;8.138;2023-03-20T08:14:07;10.30;99.90
33994;DHT22;20673;48.980;8.138;2023-03-20T08:16:33;10.30;99.90
33994;DHT22;20673;48.980;8.138;2023-03-20T08:18:59;10.40;99.90
33994;DHT22;20673;48.980;8.138;2023-03-20T08:21:29;10.30;99.90
33994;DHT22;20673;48.980;8.138;2023-03-20T08:23:56;10.30;99.90
33994;DHT22;20673;48.980;8.138;2023-03-20T08:26:22;10.20;99.90
33994;DHT22;20673;48.980;8.138;2023-03-20T08:28:47;10.20;99.90
33994;DHT22;20673;48.980;8.138;2023-03-20T08:31:13;10.10;99.90
33994;DHT22;20673;48.980;8.138;2023-03-20T08:33:39;10.10;99.90
33994;DHT22;20673;48.980;8.138;2023-03-20T08:36:05;10.10;99.90
33994;DHT22;20673;48.980;8.138;2023-03-20T08:38:31;10.00;99.90
33994;DHT22;20673;48.980;8.138;2023-03-20T08:40:57;10.00;99.90
33994;DHT22;20673;48.980;8.138;2023-03-20T08:43:23;10.00;99.90
33994;DHT22;20673;48.980;8.138;2023-03-20T08:45:49;10.00;99.90
33994;DHT22;20673;48.980;8.138;2023-03-20T08:48:15;9.90;99.90
33994;DHT22;20673;48.980;8.138;2023-03-20T08:50:40;9.90;99.90
33994;DHT22;20673;48.980;8.138;2023-03-20T08:53:06;9.90;99.90
33994;DHT22;20673;48.980;8.138;2023-03-20T08:55:32;10.00;99.90
33994;DHT22;20673;48.980;8.138;2023-03-20T08:58:00;10.00;99.90
33994;DHT22;20673;48.980;8.138;2023-03-20T09:00:28;10.10;99.90
33994;DHT22;20673;48.980;8.138;2023-03-20T09:02:54;10.20;99.90
33994;DHT22;20673;48.980;8.138;2023-03-20T09:05:21;10.30;99.90
33994;DHT22;20673;48.980;8.138;2023-03-20T09:07:47;10.60;99.90
33994;DHT22;20673;48.980;8.138;2023-03-20T09:10:13;10.70;99.90
33994;DHT22;20673;48.980;8.138;2023-03-20T09:12:40;10.70;99.90
33994;DHT22;20673;48.980;8.138;2023-03-20T09:15:06;10.90;99.90
33994;DHT22;20673;48.980;8.138;2023-03-20T09:17:32;11.10;99.90
33994;DHT22;20673;48.980;8.138;2023-03-20T09:19:58;11.20;99.90
33994;DHT22;20673;48.980;8.138;2023-03-20T09:22:24;11.20;99.90
33994;DHT22;20673;48.980;8.138;2023-03-20T09:24:50;11.30;99.90
33994;DHT22;20673;48.980;8.138;2023-03-20T09:27:16;11.50;99.90
33994;DHT22;20673;48.980;8.138;2023-03-20T09:29:42;11.70;99.90
33994;DHT22;20673;48.980;8.138;2023-03-20T09:32:09;12.00;99.90
33994;DHT22;20673;48.980;8.138;2023-03-20T09:34:35;12.20;99.90
33994;DHT22;20673;48.980;8.138;2023-03-20T09:37:02;12.40;99.90
33994;DHT22;20673;48.980;8.138;2023-03-20T09:39:28;12.50;99.90
33994;DHT22;20673;48.980;8.138;2023-03-20T09:41:54;13.20;99.90
33994;DHT22;20673;48.980;8.138;2023-03-20T09:47:07;13.20;99.90
33994;DHT22;20673;48.980;8.138;2023-03-20T09:49:39;13.10;99.90
33994;DHT22;20673;48.980;8.138;2023-03-20T09:54:50;12.80;99.90
33994;DHT22;20673;48.980;8.138;2023-03-20T09:57:22;13.10;99.90
33994;DHT22;20673;48.980;8.138;2023-03-20T09:59:49;13.40;99.90
33994;DHT22;20673;48.980;8.138;2023-03-20T10:02:21;14.00;99.90
33994;DHT22;20673;48.980;8.138;2023-03-20T10:04:45;14.40;99.90
33994;DHT22;20673;48.980;8.138;2023-03-20T10:07:11;14.50;99.90
33994;DHT22;20673;48.980;8.138;2023-03-20T10:09:39;14.70;99.90
33994;DHT22;20673;48.980;8.138;2023-03-20T10:22:50;16.30;99.90
33994;DHT22;20673;48.980;8.138;2023-03-20T10:25:31;16.00;99.90
33994;DHT22;20673;48.980;8.138;2023-03-20T10:27:59;15.50;99.90
33994;DHT22;20673;48.980;8.138;2023-03-20T10:35:38;15.80;99.90
33994;DHT22;20673;48.980;8.138;2023-03-20T10:40:33;15.60;99.90
33994;DHT22;20673;48.980;8.138;2023-03-20T10:43:02;15.70;99.90
33994;DHT22;20673;48.980;8.138;2023-03-20T10:45:44;16.10;99.90
33994;DHT22;20673;48.980;8.138;2023-03-20T10:48:14;16.10;99.90
33994;DHT22;20673;48.980;8.138;2023-03-20T10:50:42;16.20;99.90
33994;DHT22;20673;48.980;8.138;2023-03-20T10:53:09;16.40;99.90
33994;DHT22;20673;48.980;8.138;2023-03-20T10:55:41;16.40;99.90
33994;DHT22;20673;48.980;8.138;2023-03-20T10:58:10;16.10;99.90
33994;DHT22;20673;48.980;8.138;2023-03-20T11:00:32;15.80;99.90
33994;DHT22;20673;48.980;8.138;2023-03-20T11:02:58;15.20;99.90
33994;DHT22;20673;48.980;8.138;2023-03-20T11:05:28;14.60;99.90
33994;DHT22;20673;48.980;8.138;2023-03-20T11:08:10;14.10;99.90
33994;DHT22;20673;48.980;8.138;2023-03-20T11:10:36;14.10;99.90
33994;DHT22;20673;48.980;8.138;2023-03-20T11:13:35;14.40;99.90
33994;DHT22;20673;48.980;8.138;2023-03-20T11:15:35;14.30;99.90
33994;DHT22;20673;48.980;8.138;2023-03-20T11:18:05;14.40;99.90
33994;DHT22;20673;48.980;8.138;2023-03-20T11:20:34;14.40;99.90
33994;DHT22;20673;48.980;8.138;2023-03-20T11:23:02;14.40;99.90
33994;DHT22;20673;48.980;8.138;2023-03-20T11:25:32;14.60;99.90
33994;DHT22;20673;48.980;8.138;2023-03-20T11:28:36;14.30;99.90
33994;DHT22;20673;48.980;8.138;2023-03-20T11:30:40;13.90;99.90
33994;DHT22;20673;48.980;8.138;2023-03-20T11:33:07;13.80;99.90
33994;DHT22;20673;48.980;8.138;2023-03-20T11:35:37;14.00;99.90
33994;DHT22;20673;48.980;8.138;2023-03-20T11:38:16;14.00;99.90
33994;DHT22;20673;48.980;8.138;2023-03-20T11:40:45;14.10;99.90
33994;DHT22;20673;48.980;8.138;2023-03-20T11:43:14;14.20;99.90
33994;DHT22;20673;48.980;8.138;2023-03-20T11:45:41;14.40;99.90
33994;DHT22;20673;48.980;8.138;2023-03-20T11:48:24;14.90;99.90
33994;DHT22;20673;48.980;8.138;2023-03-20T11:50:48;15.30;99.90
33994;DHT22;20673;48.980;8.138;2023-03-20T11:53:22;15.20;99.90
33994;DHT22;20673;48.980;8.138;2023-03-20T11:56:02;15.20;99.90
33994;DHT22;20673;48.980;8.138;2023-03-20T11:58:27;15.20;99.90
33994;DHT22;20673;48.980;8.138;2023-03-20T12:00:55;14.90;99.90
33994;DHT22;20673;48.980;8.138;2023-03-20T12:04:04;14.90;99.90
33994;DHT22;20673;48.980;8.138;2023-03-20T12:05:53;14.60;99.90
33994;DHT22;20673;48.980;8.138;2023-03-20T12:08:22;14.40;99.90
33994;DHT22;20673;48.980;8.138;2023-03-20T12:10:49;14.20;99.90
33994;DHT22;20673;48.980;8.138;2023-03-20T12:13:15;14.40;99.90
33994;DHT22;20673;48.980;8.138;2023-03-20T12:15:49;14.70;99.90
33994;DHT22;20673;48.980;8.138;2023-03-20T12:20:54;14.90;99.90
33994;DHT22;20673;48.980;8.138;2023-03-20T12:23:21;15.00;99.90
33994;DHT22;20673;48.980;8.138;2023-03-20T12:25:49;15.10;99.90
33994;DHT22;20673;48.980;8.138;2023-03-20T12:28:27;15.30;99.90
33994;DHT22;20673;48.980;8.138;2023-03-20T12:36:17;14.90;99.90
33994;DHT22;20673;48.980;8.138;2023-03-20T12:38:40;15.00;99.90
33994;DHT22;20673;48.980;8.138;2023-03-20T12:41:14;15.10;99.90
33994;DHT22;20673;48.980;8.138;2023-03-20T12:43:51;15.10;99.90
33994;DHT22;20673;48.980;8.138;2023-03-20T12:46:22;15.50;99.90
33994;DHT22;20673;48.980;8.138;2023-03-20T12:51:18;15.60;99.90
33994;DHT22;20673;48.980;8.138;2023-03-20T13:02:00;15.20;99.90
33994;DHT22;20673;48.980;8.138;2023-03-20T13:04:34;15.50;99.90
33994;DHT22;20673;48.980;8.138;2023-03-20T13:06:54;15.50;99.90
33994;DHT22;20673;48.980;8.138;2023-03-20T13:12:13;15.00;99.90
33994;DHT22;20673;48.980;8.138;2023-03-20T13:17:24;15.00;99.90
33994;DHT22;20673;48.980;8.138;2023-03-20T13:28:14;14.90;99.90
33994;DHT22;20673;48.980;8.138;2023-03-20T13:30:41;14.90;99.90
33994;DHT22;20673;48.980;8.138;2023-03-20T13:33:14;15.00;99.90
33994;DHT22;20673;48.980;8.138;2023-03-20T13:35:47;15.00;99.90
33994;DHT22;20673;48.980;8.138;2023-03-20T13:40:40;15.10;99.90
33994;DHT22;20673;48.980;8.138;2023-03-20T13:46:02;14.90;99.90
33994;DHT22;20673;48.980;8.138;2023-03-20T13:48:31;15.10;99.90
33994;DHT22;20673;48.980;8.138;2023-03-20T13:53:34;15.20;99.90
33994;DHT22;20673;48.980;8.138;2023-03-20T13:56:10;15.40;99.90
33994;DHT22;20673;48.980;8.138;2023-03-20T14:01:27;15.40;99.90
33994;DHT22;20673;48.980;8.138;2023-03-20T14:03:51;15.30;99.90
33994;DHT22;20673;48.980;8.138;2023-03-20T14:08:58;15.30;99.90
33994;DHT22;20673;48.980;8.138;2023-03-20T14:14:13;15.50;99.90
33994;DHT22;20673;48.980;8.138;2023-03-20T14:16:38;15.30;99.90
33994;DHT22;20673;48.980;8.138;2023-03-20T14:21:32;15.30;99.90
33994;DHT22;20673;48.980;8.138;2023-03-20T14:24:02;15.20;99.90
33994;DHT22;20673;48.980;8.138;2023-03-20T14:26:27;15.20;99.90
33994;DHT22;20673;48.980;8.138;2023-03-20T14:29:00;15.20;99.90
33994;DHT22;20673;48.980;8.138;2023-03-20T14:31:28;15.30;99.90
33994;DHT22;20673;48.980;8.138;2023-03-20T14:34:06;15.30;99.90
33994;DHT22;20673;48.980;8.138;2023-03-20T14:36:30;15.20;99.90
33994;DHT22;20673;48.980;8.138;2023-03-20T14:44:23;14.80;99.90
33994;DHT22;20673;48.980;8.138;2023-03-20T14:46:58;14.80;99.90
33994;DHT22;20673;48.980;8.138;2023-03-20T14:51:52;14.70;99.90
33994;DHT22;20673;48.980;8.138;2023-03-20T14:56:50;14.50;99.90
33994;DHT22;20673;48.980;8.138;2023-03-20T14:59:21;14.50;99.90
33994;DHT22;20673;48.980;8.138;2023-03-20T15:01:45;14.40;99.90
33994;DHT22;20673;48.980;8.138;2023-03-20T15:04:27;14.30;99.90
33994;DHT22;20673;48.980;8.138;2023-03-20T15:06:57;14.40;99.90
33994;DHT22;20673;48.980;8.138;2023-03-20T15:09:24;14.40;99.90
33994;DHT22;20673;48.980;8.138;2023-03-20T15:11:51;14.30;99.90
33994;DHT22;20673;48.980;8.138;2023-03-20T15:14:24;14.20;99.90
33994;DHT22;20673;48.980;8.138;2023-03-20T15:16:56;14.30;99.90
33994;DHT22;20673;48.980;8.138;2023-03-20T15:19:18;14.20;99.90
33994;DHT22;20673;48.980;8.138;2023-03-20T15:21:45;14.00;99.90
33994;DHT22;20673;48.980;8.138;2023-03-20T15:24:19;14.00;99.90
33994;DHT22;20673;48.980;8.138;2023-03-20T15:26:45;14.00;99.90
33994;DHT22;20673;48.980;8.138;2023-03-20T15:29:12;14.10;99.90
33994;DHT22;20673;48.980;8.138;2023-03-20T15:31:39;14.00;99.90
33994;DHT22;20673;48.980;8.138;2023-03-20T15:34:08;14.00;99.90
33994;DHT22;20673;48.980;8.138;2023-03-20T15:36:35;13.90;99.90
33994;DHT22;20673;48.980;8.138;2023-03-20T15:39:17;13.90;99.90
33994;DHT22;20673;48.980;8.138;2023-03-20T15:41:50;13.90;99.90
33994;DHT22;20673;48.980;8.138;2023-03-20T15:46:52;13.70;99.90
33994;DHT22;20673;48.980;8.138;2023-03-20T15:49:19;13.80;99.90
33994;DHT22;20673;48.980;8.138;2023-03-20T15:51:45;13.70;99.90
33994;DHT22;20673;48.980;8.138;2023-03-20T15:54:16;13.60;99.90
33994;DHT22;20673;48.980;8.138;2023-03-20T15:56:39;13.70;99.90
33994;DHT22;20673;48.980;8.138;2023-03-20T15:59:08;13.60;99.90
33994;DHT22;20673;48.980;8.138;2023-03-20T16:01:34;13.60;99.90
33994;DHT22;20673;48.980;8.138;2023-03-20T16:04:00;13.60;99.90
33994;DHT22;20673;48.980;8.138;2023-03-20T16:06:26;13.70;99.90
33994;DHT22;20673;48.980;8.138;2023-03-20T16:08:59;13.70;99.90
33994;DHT22;20673;48.980;8.138;2023-03-20T16:11:32;13.70;99.90
33994;DHT22;20673;48.980;8.138;2023-03-20T16:13:52;13.60;99.90
33994;DHT22;20673;48.980;8.138;2023-03-20T16:16:19;13.60;99.90
33994;DHT22;20673;48.980;8.138;2023-03-20T16:18:46;13.50;99.90
33994;DHT22;20673;48.980;8.138;2023-03-20T16:21:20;13.50;99.90
33994;DHT22;20673;48.980;8.138;2023-03-20T16:23:44;13.50;99.90
33994;DHT22;20673;48.980;8.138;2023-03-20T16:26:14;13.50;99.90
33994;DHT22;20673;48.980;8.138;2023-03-20T16:28:39;13.30;99.90
33994;DHT22;20673;48.980;8.138;2023-03-20T16:31:09;13.30;99.90
33994;DHT22;20673;48.980;8.138;2023-03-20T16:33:36;13.30;99.90
33994;DHT22;20673;48.980;8.138;2023-03-20T16:36:03;13.20;99.90
33994;DHT22;20673;48.980;8.138;2023-03-20T16:38:30;13.10;99.90
33994;DHT22;20673;48.980;8.138;2023-03-20T16:41:12;13.10;99.90
33994;DHT22;20673;48.980;8.138;2023-03-20T16:43:25;13.10;99.90
33994;DHT22;20673;48.980;8.138;2023-03-20T16:45:56;13.10;99.90
33994;DHT22;20673;48.980;8.138;2023-03-20T16:50:54;13.00;99.90
33994;DHT22;20673;48.980;8.138;2023-03-20T16:53:21;13.00;99.90
33994;DHT22;20673;48.980;8.138;2023-03-20T16:55:49;12.90;99.90
33994;DHT22;20673;48.980;8.138;2023-03-20T16:58:20;12.90;99.90
33994;DHT22;20673;48.980;8.138;2023-03-20T17:00:51;12.80;99.90
33994;DHT22;20673;48.980;8.138;2023-03-20T17:03:18;12.70;99.90
33994;DHT22;20673;48.980;8.138;2023-03-20T17:05:46;12.70;99.90
33994;DHT22;20673;48.980;8.138;2023-03-20T17:08:14;12.60;99.90
33994;DHT22;20673;48.980;8.138;2023-03-20T17:10:49;12.60;99.90
33994;DHT22;20673;48.980;8.138;2023-03-20T17:13:11;12.60;99.90
33994;DHT22;20673;48.980;8.138;2023-03-20T17:15:37;12.50;99.90
33994;DHT22;20673;48.980;8.138;2023-03-20T17:18:03;12.60;99.90
33994;DHT22;20673;48.980;8.138;2023-03-20T17:20:29;12.50;99.90
33994;DHT22;20673;48.980;8.138;2023-03-20T17:22:56;12.50;99.90
33994;DHT22;20673;48.980;8.138;2023-03-20T17:25:22;12.40;99.90
33994;DHT22;20673;48.980;8.138;2023-03-20T17:27:48;12.40;99.90
33994;DHT22;20673;48.980;8.138;2023-03-20T17:30:19;12.40;99.90
33994;DHT22;20673;48.980;8.138;2023-03-20T17:32:45;12.30;99.90
33994;DHT22;20673;48.980;8.138;2023-03-20T17:35:11;12.30;99.90
33994;DHT22;20673;48.980;8.138;2023-03-20T17:37:39;12.30;99.90
33994;DHT22;20673;48.980;8.138;2023-03-20T17:40:05;12.30;99.90
33994;DHT22;20673;48.980;8.138;2023-03-20T17:42:32;12.20;99.90
33994;DHT22;20673;48.980;8.138;2023-03-20T17:44:58;12.10;99.90
33994;DHT22;20673;48.980;8.138;2023-03-20T17:47:24;12.10;99.90